Weather observations for the past three days for
Phillips Army Air Field / Aberdeen
Imperial (Metric)
Date Time (edt) Wind (mph) Vis. (mi.) Weather Sky Cond. Temperature (ºF) Relative Humidity Wind Chill (°F) Heat Index (°F) Pressure Precipitation (in)
Air Dwpt 6 hour altimeter (in) sea level (mb) 1 hr 3 hr 6 hr
Max. Min.
03 15:56 SW 10 10.00 Partly Cloudy SCT018 85.6 74.7 70% 94 29.93 1013.7
03 14:55 SW 9 10.00 Mostly Cloudy BKN016 84.4 75.9 76% 93 29.95 1014.4
03 14:06 W 9 10.00 Mostly Cloudy BKN016 83.7 76.5 79% 93 29.97 1015.1
03 12:54 S 7 10.00 Mostly Cloudy BKN015 80.1 77.7 93% 86 29.96 1014.8
03 11:55 W 12 7.00 Overcast OVC015 78.4 75.6 91% 82 30.04 1017.5
03 10:54 SW 10 9.00 Overcast OVC012 77.9 75.4 92% 80 30.02 1016.8 0.02
03 09:56 SW 10 10.00 Mostly Cloudy BKN008 77.7 76.1 95% 80 30 1016.1 0.01
03 08:53 SW 12 10.00 Mostly Cloudy SCT007 BKN015 74.8 74.1 98% 30.03 1017.1 0.02
03 08:06 S 5 9.00 Partly Cloudy FEW004 SCT007 73.6 73.2 99% 30.04 1017.5 0.05
03 07:55 Calm 7.00 Mostly Cloudy BKN004 73.2 72.9 75.2 73 99% 30.06 1018.2 0.04 0.12
03 06:56 NE 6 10.00 Light Rain BKN007 OVC015 73.8 73 98% 30.06 1018.2 0.05
02 15:57 Calm 7.00 Overcast BKN010 OVC015 78.4 75.6 91% 82 30.04 1017.5
02 14:54 SE 5 4.00 Light Showers Rain OVC015 74.1 73.2 97% 30.04 1017.5 0.06
02 13:51 NE 3 4.00 Light Rain Fog/Mist OVC015 74.7 73.8 79.9 73.8 97% 30.13 1020.5 0.29 0.29
02 12:58 E 6 7.00 Overcast OVC015 78.4 73.2 84% 81 30.1 1019.5
02 11:57 SE 7 10.00 Overcast OVC015 78.6 73 83% 82 30.09 1019.2
02 10:58 E 10 10.00 Overcast OVC011 77.9 73 85% 80 30.1 1019.5
02 09:55 E 8 10.00 Mostly Cloudy BKN012 76.3 73.4 91% 77 30.09 1019.2
02 08:55 E 7 10.00 Overcast BKN007 OVC012 75.2 73.6 95% 74 30.08 1018.8
02 07:55 E 6 5.00 Fog/Mist BKN004 OVC012 73.9 73.6 73.9 70.7 99% 30.07 1018.5
02 06:55 N 3 5.00 Fog/Mist BKN007 72 71.6 99% 30.06 1018.2
01 14:56 SW 9 10.00 Mostly Cloudy BKN080 92.3 75.7 59% 104 29.96 1014.8
01 13:55 SW 8 10.00 Mostly Cloudy BKN080 91 75.2 91 74.8 60% 102 29.97 1015.1
01 12:55 Calm 10.00 Light Showers Rain BKN040 BKN090 86.4 76.6 73% 97 29.98 1015.4
01 11:58 W 6 10.00 Mostly Cloudy BKN080 89.4 75.6 64% 100 29.99 1015.8
01 11:55 SW 8 10.00 A Few Clouds FEW270 89.1 76.1 66% 101 29.99 1015.8
01 10:55 SW 7 10.00 Mostly Cloudy BKN120 86.7 76.1 71% 97 30 1016.1
01 09:55 W 3 9.00 Mostly Cloudy BKN100 79.9 75.2 86% 85 30.01 1016.5
01 08:55 W 8 10.00 Mostly Cloudy BKN110 80.8 76.1 86% 87 30.01 1016.5
01 07:55 Calm 8.00 Partly Cloudy SCT120 74.7 73.9 74.7 70 98% 30.02 1016.8
01 06:55 Calm 8.00 Mostly Cloudy BKN120 70.2 69.8 99% 30.01 1016.5
Date Time (edt) Wind (mph) Vis. (mi.) Weather Sky Cond. Air Dwpt Max. Min. Relative Humidity Wind Chill (°F) Heat Index (°F) altimeter (in) sea level (mb) 1 hr 3 hr 6 hr
6 hour
Temperature (ºF) Pressure Precipitation (in)